sensor_id;sensor_type;location;lat;lon;timestamp;P1;durP1;ratioP1;P2;durP2;ratioP2
10839;SDS011;5473;42.706;23.328;2022-11-20T00:00:02;0.30;;;0.30;;
10839;SDS011;5473;42.706;23.328;2022-11-20T00:02:29;0.30;;;0.30;;
10839;SDS011;5473;42.706;23.328;2022-11-20T00:04:56;0.20;;;0.20;;
10839;SDS011;5473;42.706;23.328;2022-11-20T00:07:24;0.30;;;0.30;;
10839;SDS011;5473;42.706;23.328;2022-11-20T00:09:51;0.20;;;0.20;;
10839;SDS011;5473;42.706;23.328;2022-11-20T00:12:18;0.20;;;0.20;;
10839;SDS011;5473;42.706;23.328;2022-11-20T00:14:44;0.20;;;0.20;;
10839;SDS011;5473;42.706;23.328;2022-11-20T00:17:11;0.20;;;0.20;;
10839;SDS011;5473;42.706;23.328;2022-11-20T00:19:38;0.20;;;0.20;;
10839;SDS011;5473;42.706;23.328;2022-11-20T00:22:05;0.20;;;0.20;;
10839;SDS011;5473;42.706;23.328;2022-11-20T00:24:33;0.20;;;0.20;;
10839;SDS011;5473;42.706;23.328;2022-11-20T00:26:59;0.23;;;0.23;;
10839;SDS011;5473;42.706;23.328;2022-11-20T00:29:26;0.30;;;0.30;;
10839;SDS011;5473;42.706;23.328;2022-11-20T00:31:53;0.10;;;0.10;;
10839;SDS011;5473;42.706;23.328;2022-11-20T00:34:20;0.20;;;0.20;;
10839;SDS011;5473;42.706;23.328;2022-11-20T00:36:46;0.20;;;0.20;;
10839;SDS011;5473;42.706;23.328;2022-11-20T00:39:13;0.20;;;0.20;;
10839;SDS011;5473;42.706;23.328;2022-11-20T00:41:41;0.20;;;0.20;;
10839;SDS011;5473;42.706;23.328;2022-11-20T00:44:08;0.20;;;0.20;;
10839;SDS011;5473;42.706;23.328;2022-11-20T00:46:35;0.20;;;0.20;;
10839;SDS011;5473;42.706;23.328;2022-11-20T00:49:01;0.20;;;0.20;;
10839;SDS011;5473;42.706;23.328;2022-11-20T00:51:28;0.20;;;0.20;;
10839;SDS011;5473;42.706;23.328;2022-11-20T00:53:55;0.20;;;0.20;;
10839;SDS011;5473;42.706;23.328;2022-11-20T00:56:22;0.10;;;0.10;;
10839;SDS011;5473;42.706;23.328;2022-11-20T00:58:50;0.20;;;0.20;;
10839;SDS011;5473;42.706;23.328;2022-11-20T01:01:17;0.20;;;0.20;;
10839;SDS011;5473;42.706;23.328;2022-11-20T01:03:47;0.10;;;0.10;;
10839;SDS011;5473;42.706;23.328;2022-11-20T01:06:16;0.10;;;0.10;;
10839;SDS011;5473;42.706;23.328;2022-11-20T01:08:45;0.13;;;0.13;;
10839;SDS011;5473;42.706;23.328;2022-11-20T01:11:13;0.10;;;0.10;;
10839;SDS011;5473;42.706;23.328;2022-11-20T01:13:41;0.10;;;0.10;;
10839;SDS011;5473;42.706;23.328;2022-11-20T01:16:11;0.10;;;0.10;;
10839;SDS011;5473;42.706;23.328;2022-11-20T01:18:40;0.10;;;0.10;;
10839;SDS011;5473;42.706;23.328;2022-11-20T01:21:09;0.20;;;0.20;;
10839;SDS011;5473;42.706;23.328;2022-11-20T01:23:37;0.13;;;0.13;;
10839;SDS011;5473;42.706;23.328;2022-11-20T01:26:07;0.20;;;0.20;;
10839;SDS011;5473;42.706;23.328;2022-11-20T01:28:36;0.10;;;0.10;;
10839;SDS011;5473;42.706;23.328;2022-11-20T01:31:11;0.20;;;0.20;;
10839;SDS011;5473;42.706;23.328;2022-11-20T01:33:39;0.10;;;0.10;;
10839;SDS011;5473;42.706;23.328;2022-11-20T01:36:07;0.10;;;0.10;;
10839;SDS011;5473;42.706;23.328;2022-11-20T01:38:35;0.10;;;0.10;;
10839;SDS011;5473;42.706;23.328;2022-11-20T01:41:02;0.10;;;0.10;;
10839;SDS011;5473;42.706;23.328;2022-11-20T01:43:28;0.20;;;0.20;;
10839;SDS011;5473;42.706;23.328;2022-11-20T01:46:02;0.10;;;0.10;;
10839;SDS011;5473;42.706;23.328;2022-11-20T01:48:45;0.20;;;0.20;;
10839;SDS011;5473;42.706;23.328;2022-11-20T01:51:20;0.20;;;0.20;;
10839;SDS011;5473;42.706;23.328;2022-11-20T01:53:55;0.20;;;0.20;;
10839;SDS011;5473;42.706;23.328;2022-11-20T01:56:25;0.10;;;0.10;;
10839;SDS011;5473;42.706;23.328;2022-11-20T01:58:54;0.20;;;0.20;;
10839;SDS011;5473;42.706;23.328;2022-11-20T02:01:25;0.20;;;0.20;;
10839;SDS011;5473;42.706;23.328;2022-11-20T02:03:52;0.17;;;0.17;;
10839;SDS011;5473;42.706;23.328;2022-11-20T02:06:22;0.20;;;0.20;;
10839;SDS011;5473;42.706;23.328;2022-11-20T02:08:52;0.10;;;0.10;;
10839;SDS011;5473;42.706;23.328;2022-11-20T02:11:18;0.20;;;0.20;;
10839;SDS011;5473;42.706;23.328;2022-11-20T02:13:46;0.10;;;0.10;;
10839;SDS011;5473;42.706;23.328;2022-11-20T02:16:14;0.20;;;0.20;;
10839;SDS011;5473;42.706;23.328;2022-11-20T02:18:45;0.13;;;0.13;;
10839;SDS011;5473;42.706;23.328;2022-11-20T02:21:21;0.10;;;0.10;;
10839;SDS011;5473;42.706;23.328;2022-11-20T02:24:05;0.20;;;0.20;;
10839;SDS011;5473;42.706;23.328;2022-11-20T02:26:37;0.10;;;0.10;;
10839;SDS011;5473;42.706;23.328;2022-11-20T02:29:08;0.10;;;0.10;;
10839;SDS011;5473;42.706;23.328;2022-11-20T02:31:36;0.10;;;0.10;;
10839;SDS011;5473;42.706;23.328;2022-11-20T02:34:04;0.20;;;0.20;;
10839;SDS011;5473;42.706;23.328;2022-11-20T02:36:32;0.10;;;0.10;;
10839;SDS011;5473;42.706;23.328;2022-11-20T02:39:01;0.10;;;0.10;;
10839;SDS011;5473;42.706;23.328;2022-11-20T02:41:33;0.20;;;0.20;;
10839;SDS011;5473;42.706;23.328;2022-11-20T02:44:02;0.10;;;0.10;;
10839;SDS011;5473;42.706;23.328;2022-11-20T02:46:30;0.10;;;0.10;;
10839;SDS011;5473;42.706;23.328;2022-11-20T02:48:57;0.10;;;0.10;;
10839;SDS011;5473;42.706;23.328;2022-11-20T02:51:25;0.10;;;0.10;;
10839;SDS011;5473;42.706;23.328;2022-11-20T02:53:51;0.10;;;0.10;;
10839;SDS011;5473;42.706;23.328;2022-11-20T02:56:18;0.20;;;0.20;;
10839;SDS011;5473;42.706;23.328;2022-11-20T02:58:46;0.17;;;0.17;;
10839;SDS011;5473;42.706;23.328;2022-11-20T03:01:14;0.20;;;0.20;;
10839;SDS011;5473;42.706;23.328;2022-11-20T03:03:40;0.10;;;0.10;;
10839;SDS011;5473;42.706;23.328;2022-11-20T03:06:07;0.20;;;0.20;;
10839;SDS011;5473;42.706;23.328;2022-11-20T03:08:34;0.10;;;0.10;;
10839;SDS011;5473;42.706;23.328;2022-11-20T03:11:05;0.13;;;0.13;;
10839;SDS011;5473;42.706;23.328;2022-11-20T03:13:33;0.10;;;0.10;;
10839;SDS011;5473;42.706;23.328;2022-11-20T03:16:06;0.20;;;0.20;;
10839;SDS011;5473;42.706;23.328;2022-11-20T03:18:34;0.10;;;0.10;;
10839;SDS011;5473;42.706;23.328;2022-11-20T03:21:01;0.20;;;0.20;;
10839;SDS011;5473;42.706;23.328;2022-11-20T03:23:28;0.10;;;0.10;;
10839;SDS011;5473;42.706;23.328;2022-11-20T03:25:56;0.20;;;0.20;;
10839;SDS011;5473;42.706;23.328;2022-11-20T03:28:22;0.20;;;0.20;;
10839;SDS011;5473;42.706;23.328;2022-11-20T03:30:49;0.10;;;0.10;;
10839;SDS011;5473;42.706;23.328;2022-11-20T03:33:17;0.20;;;0.20;;
10839;SDS011;5473;42.706;23.328;2022-11-20T03:35:44;0.20;;;0.20;;
10839;SDS011;5473;42.706;23.328;2022-11-20T03:38:11;0.10;;;0.10;;
10839;SDS011;5473;42.706;23.328;2022-11-20T03:40:38;0.10;;;0.10;;
10839;SDS011;5473;42.706;23.328;2022-11-20T03:43:04;0.10;;;0.10;;
10839;SDS011;5473;42.706;23.328;2022-11-20T03:45:31;0.20;;;0.20;;
10839;SDS011;5473;42.706;23.328;2022-11-20T03:47:58;0.20;;;0.20;;
10839;SDS011;5473;42.706;23.328;2022-11-20T03:50:26;0.10;;;0.10;;
10839;SDS011;5473;42.706;23.328;2022-11-20T03:52:53;0.20;;;0.20;;
10839;SDS011;5473;42.706;23.328;2022-11-20T03:55:19;0.20;;;0.20;;
10839;SDS011;5473;42.706;23.328;2022-11-20T03:57:46;0.20;;;0.20;;
10839;SDS011;5473;42.706;23.328;2022-11-20T04:00:13;0.20;;;0.20;;
10839;SDS011;5473;42.706;23.328;2022-11-20T04:02:40;0.10;;;0.10;;
10839;SDS011;5473;42.706;23.328;2022-11-20T04:05:07;0.10;;;0.10;;
10839;SDS011;5473;42.706;23.328;2022-11-20T04:07:36;0.20;;;0.20;;
10839;SDS011;5473;42.706;23.328;2022-11-20T04:10:03;0.20;;;0.20;;
10839;SDS011;5473;42.706;23.328;2022-11-20T04:12:31;0.20;;;0.20;;
10839;SDS011;5473;42.706;23.328;2022-11-20T04:14:58;0.10;;;0.10;;
10839;SDS011;5473;42.706;23.328;2022-11-20T04:17:25;0.20;;;0.20;;
10839;SDS011;5473;42.706;23.328;2022-11-20T04:19:52;0.20;;;0.20;;
10839;SDS011;5473;42.706;23.328;2022-11-20T04:22:18;0.20;;;0.20;;
10839;SDS011;5473;42.706;23.328;2022-11-20T04:24:46;0.20;;;0.20;;
10839;SDS011;5473;42.706;23.328;2022-11-20T04:27:13;0.20;;;0.20;;
10839;SDS011;5473;42.706;23.328;2022-11-20T04:29:40;0.20;;;0.20;;
10839;SDS011;5473;42.706;23.328;2022-11-20T04:32:07;0.20;;;0.20;;
10839;SDS011;5473;42.706;23.328;2022-11-20T04:34:33;0.10;;;0.10;;
10839;SDS011;5473;42.706;23.328;2022-11-20T04:37:00;0.17;;;0.17;;
10839;SDS011;5473;42.706;23.328;2022-11-20T04:39:27;0.13;;;0.13;;
10839;SDS011;5473;42.706;23.328;2022-11-20T04:41:55;0.20;;;0.20;;
10839;SDS011;5473;42.706;23.328;2022-11-20T04:44:36;0.20;;;0.20;;
10839;SDS011;5473;42.706;23.328;2022-11-20T04:47:02;0.20;;;0.20;;
10839;SDS011;5473;42.706;23.328;2022-11-20T04:49:29;0.20;;;0.20;;
10839;SDS011;5473;42.706;23.328;2022-11-20T04:51:56;0.20;;;0.20;;
10839;SDS011;5473;42.706;23.328;2022-11-20T04:54:23;0.20;;;0.20;;
10839;SDS011;5473;42.706;23.328;2022-11-20T04:56:50;0.20;;;0.20;;
10839;SDS011;5473;42.706;23.328;2022-11-20T04:59:18;0.20;;;0.20;;
10839;SDS011;5473;42.706;23.328;2022-11-20T05:01:45;0.20;;;0.20;;
10839;SDS011;5473;42.706;23.328;2022-11-20T05:04:12;0.20;;;0.20;;
10839;SDS011;5473;42.706;23.328;2022-11-20T05:06:38;0.20;;;0.20;;
10839;SDS011;5473;42.706;23.328;2022-11-20T05:09:05;0.10;;;0.10;;
10839;SDS011;5473;42.706;23.328;2022-11-20T05:11:32;0.20;;;0.20;;
10839;SDS011;5473;42.706;23.328;2022-11-20T05:13:59;0.20;;;0.20;;
10839;SDS011;5473;42.706;23.328;2022-11-20T05:16:27;0.20;;;0.20;;
10839;SDS011;5473;42.706;23.328;2022-11-20T05:18:54;0.20;;;0.20;;
10839;SDS011;5473;42.706;23.328;2022-11-20T05:21:21;0.20;;;0.20;;
10839;SDS011;5473;42.706;23.328;2022-11-20T05:23:48;0.20;;;0.20;;
10839;SDS011;5473;42.706;23.328;2022-11-20T05:26:16;0.20;;;0.20;;
10839;SDS011;5473;42.706;23.328;2022-11-20T05:28:44;0.20;;;0.20;;
10839;SDS011;5473;42.706;23.328;2022-11-20T05:31:11;0.20;;;0.20;;
10839;SDS011;5473;42.706;23.328;2022-11-20T05:33:41;0.20;;;0.20;;
10839;SDS011;5473;42.706;23.328;2022-11-20T05:36:09;0.20;;;0.20;;
10839;SDS011;5473;42.706;23.328;2022-11-20T05:38:36;0.20;;;0.20;;
10839;SDS011;5473;42.706;23.328;2022-11-20T05:41:04;0.20;;;0.20;;
10839;SDS011;5473;42.706;23.328;2022-11-20T05:43:32;0.10;;;0.10;;
10839;SDS011;5473;42.706;23.328;2022-11-20T05:46:00;0.20;;;0.20;;
10839;SDS011;5473;42.706;23.328;2022-11-20T05:48:27;0.20;;;0.20;;
10839;SDS011;5473;42.706;23.328;2022-11-20T05:50:55;0.20;;;0.20;;
10839;SDS011;5473;42.706;23.328;2022-11-20T05:53:23;0.20;;;0.20;;
10839;SDS011;5473;42.706;23.328;2022-11-20T05:55:55;0.20;;;0.20;;
10839;SDS011;5473;42.706;23.328;2022-11-20T05:58:23;0.20;;;0.20;;
10839;SDS011;5473;42.706;23.328;2022-11-20T06:00:50;0.20;;;0.20;;
10839;SDS011;5473;42.706;23.328;2022-11-20T06:03:17;0.20;;;0.20;;
10839;SDS011;5473;42.706;23.328;2022-11-20T06:05:44;0.10;;;0.10;;
10839;SDS011;5473;42.706;23.328;2022-11-20T06:08:12;0.20;;;0.20;;
10839;SDS011;5473;42.706;23.328;2022-11-20T06:10:38;0.20;;;0.20;;
10839;SDS011;5473;42.706;23.328;2022-11-20T06:13:05;0.20;;;0.20;;
10839;SDS011;5473;42.706;23.328;2022-11-20T06:15:32;0.20;;;0.20;;
10839;SDS011;5473;42.706;23.328;2022-11-20T06:17:59;0.20;;;0.20;;
10839;SDS011;5473;42.706;23.328;2022-11-20T06:20:25;0.10;;;0.10;;
10839;SDS011;5473;42.706;23.328;2022-11-20T06:22:52;0.17;;;0.17;;
10839;SDS011;5473;42.706;23.328;2022-11-20T06:25:20;0.20;;;0.20;;
10839;SDS011;5473;42.706;23.328;2022-11-20T06:27:47;0.20;;;0.20;;
10839;SDS011;5473;42.706;23.328;2022-11-20T06:30:14;0.20;;;0.20;;
10839;SDS011;5473;42.706;23.328;2022-11-20T06:32:41;0.20;;;0.20;;
10839;SDS011;5473;42.706;23.328;2022-11-20T06:35:08;0.20;;;0.20;;
10839;SDS011;5473;42.706;23.328;2022-11-20T06:37:35;0.20;;;0.20;;
10839;SDS011;5473;42.706;23.328;2022-11-20T06:40:02;0.20;;;0.20;;
10839;SDS011;5473;42.706;23.328;2022-11-20T06:42:31;0.27;;;0.27;;
10839;SDS011;5473;42.706;23.328;2022-11-20T06:44:58;0.13;;;0.13;;
10839;SDS011;5473;42.706;23.328;2022-11-20T06:47:25;0.10;;;0.10;;
10839;SDS011;5473;42.706;23.328;2022-11-20T06:49:52;0.20;;;0.20;;
10839;SDS011;5473;42.706;23.328;2022-11-20T06:52:18;0.10;;;0.10;;
10839;SDS011;5473;42.706;23.328;2022-11-20T06:54:45;0.20;;;0.20;;
10839;SDS011;5473;42.706;23.328;2022-11-20T06:57:12;0.20;;;0.20;;
10839;SDS011;5473;42.706;23.328;2022-11-20T06:59:40;0.10;;;0.10;;
10839;SDS011;5473;42.706;23.328;2022-11-20T07:02:08;0.10;;;0.10;;
10839;SDS011;5473;42.706;23.328;2022-11-20T07:04:36;0.20;;;0.20;;
10839;SDS011;5473;42.706;23.328;2022-11-20T07:07:03;0.10;;;0.10;;
10839;SDS011;5473;42.706;23.328;2022-11-20T07:09:31;0.10;;;0.10;;
10839;SDS011;5473;42.706;23.328;2022-11-20T07:11:58;0.10;;;0.10;;
10839;SDS011;5473;42.706;23.328;2022-11-20T07:14:25;0.20;;;0.20;;
10839;SDS011;5473;42.706;23.328;2022-11-20T07:16:53;0.20;;;0.20;;
10839;SDS011;5473;42.706;23.328;2022-11-20T07:19:20;0.20;;;0.20;;
10839;SDS011;5473;42.706;23.328;2022-11-20T07:21:47;0.20;;;0.20;;
10839;SDS011;5473;42.706;23.328;2022-11-20T07:24:13;0.20;;;0.20;;
10839;SDS011;5473;42.706;23.328;2022-11-20T07:26:40;0.10;;;0.10;;
10839;SDS011;5473;42.706;23.328;2022-11-20T07:29:07;0.20;;;0.20;;
10839;SDS011;5473;42.706;23.328;2022-11-20T07:31:34;0.20;;;0.20;;
10839;SDS011;5473;42.706;23.328;2022-11-20T07:34:02;0.10;;;0.10;;
10839;SDS011;5473;42.706;23.328;2022-11-20T07:36:29;0.10;;;0.10;;
10839;SDS011;5473;42.706;23.328;2022-11-20T07:38:56;0.10;;;0.10;;
10839;SDS011;5473;42.706;23.328;2022-11-20T07:41:22;0.20;;;0.20;;
10839;SDS011;5473;42.706;23.328;2022-11-20T07:43:49;0.20;;;0.20;;
10839;SDS011;5473;42.706;23.328;2022-11-20T07:46:16;0.20;;;0.20;;
10839;SDS011;5473;42.706;23.328;2022-11-20T07:48:43;0.10;;;0.10;;
10839;SDS011;5473;42.706;23.328;2022-11-20T07:51:11;0.20;;;0.20;;
10839;SDS011;5473;42.706;23.328;2022-11-20T07:53:38;0.20;;;0.20;;
10839;SDS011;5473;42.706;23.328;2022-11-20T07:56:05;0.20;;;0.20;;
10839;SDS011;5473;42.706;23.328;2022-11-20T07:58:32;0.20;;;0.20;;
10839;SDS011;5473;42.706;23.328;2022-11-20T08:01:02;0.20;;;0.20;;
10839;SDS011;5473;42.706;23.328;2022-11-20T08:03:29;0.10;;;0.10;;
10839;SDS011;5473;42.706;23.328;2022-11-20T08:05:58;0.20;;;0.20;;
10839;SDS011;5473;42.706;23.328;2022-11-20T08:08:26;0.20;;;0.20;;
10839;SDS011;5473;42.706;23.328;2022-11-20T08:10:53;0.20;;;0.20;;
10839;SDS011;5473;42.706;23.328;2022-11-20T08:13:40;0.20;;;0.20;;
10839;SDS011;5473;42.706;23.328;2022-11-20T08:16:24;0.20;;;0.20;;
10839;SDS011;5473;42.706;23.328;2022-11-20T08:18:50;0.10;;;0.10;;
10839;SDS011;5473;42.706;23.328;2022-11-20T08:21:17;0.20;;;0.20;;
10839;SDS011;5473;42.706;23.328;2022-11-20T08:23:45;0.20;;;0.20;;
10839;SDS011;5473;42.706;23.328;2022-11-20T08:26:12;0.20;;;0.20;;
10839;SDS011;5473;42.706;23.328;2022-11-20T08:28:39;0.20;;;0.20;;
10839;SDS011;5473;42.706;23.328;2022-11-20T08:31:05;0.20;;;0.20;;
10839;SDS011;5473;42.706;23.328;2022-11-20T08:33:32;0.20;;;0.20;;
10839;SDS011;5473;42.706;23.328;2022-11-20T08:35:59;0.20;;;0.20;;
10839;SDS011;5473;42.706;23.328;2022-11-20T08:38:27;0.20;;;0.20;;
10839;SDS011;5473;42.706;23.328;2022-11-20T08:40:57;0.20;;;0.20;;
10839;SDS011;5473;42.706;23.328;2022-11-20T08:43:41;0.20;;;0.20;;
10839;SDS011;5473;42.706;23.328;2022-11-20T08:46:08;0.20;;;0.20;;
10839;SDS011;5473;42.706;23.328;2022-11-20T08:48:35;0.20;;;0.20;;
10839;SDS011;5473;42.706;23.328;2022-11-20T08:51:01;0.20;;;0.20;;
10839;SDS011;5473;42.706;23.328;2022-11-20T08:53:28;0.20;;;0.20;;
10839;SDS011;5473;42.706;23.328;2022-11-20T08:55:57;0.20;;;0.20;;
10839;SDS011;5473;42.706;23.328;2022-11-20T08:58:24;0.20;;;0.20;;
10839;SDS011;5473;42.706;23.328;2022-11-20T09:00:51;0.20;;;0.20;;
10839;SDS011;5473;42.706;23.328;2022-11-20T09:03:18;0.20;;;0.20;;
10839;SDS011;5473;42.706;23.328;2022-11-20T09:05:44;0.20;;;0.20;;
10839;SDS011;5473;42.706;23.328;2022-11-20T09:08:11;0.20;;;0.20;;
10839;SDS011;5473;42.706;23.328;2022-11-20T09:10:38;0.20;;;0.20;;
10839;SDS011;5473;42.706;23.328;2022-11-20T09:13:07;0.30;;;0.30;;
10839;SDS011;5473;42.706;23.328;2022-11-20T09:15:33;0.20;;;0.20;;
10839;SDS011;5473;42.706;23.328;2022-11-20T09:18:01;0.20;;;0.20;;
10839;SDS011;5473;42.706;23.328;2022-11-20T09:20:29;0.20;;;0.20;;
10839;SDS011;5473;42.706;23.328;2022-11-20T09:22:57;0.20;;;0.20;;
10839;SDS011;5473;42.706;23.328;2022-11-20T09:25:24;0.20;;;0.20;;
10839;SDS011;5473;42.706;23.328;2022-11-20T09:27:54;0.20;;;0.20;;
10839;SDS011;5473;42.706;23.328;2022-11-20T09:30:23;0.20;;;0.20;;
10839;SDS011;5473;42.706;23.328;2022-11-20T09:32:50;0.23;;;0.23;;
10839;SDS011;5473;42.706;23.328;2022-11-20T09:35:17;0.20;;;0.20;;
10839;SDS011;5473;42.706;23.328;2022-11-20T09:37:44;0.20;;;0.20;;
10839;SDS011;5473;42.706;23.328;2022-11-20T09:40:16;0.20;;;0.20;;
10839;SDS011;5473;42.706;23.328;2022-11-20T09:42:47;0.20;;;0.20;;
10839;SDS011;5473;42.706;23.328;2022-11-20T09:45:23;0.20;;;0.20;;
10839;SDS011;5473;42.706;23.328;2022-11-20T09:48:03;0.30;;;0.30;;
10839;SDS011;5473;42.706;23.328;2022-11-20T09:50:45;0.20;;;0.20;;
10839;SDS011;5473;42.706;23.328;2022-11-20T09:53:20;0.20;;;0.20;;
10839;SDS011;5473;42.706;23.328;2022-11-20T09:55:54;0.20;;;0.20;;
10839;SDS011;5473;42.706;23.328;2022-11-20T09:58:24;0.20;;;0.20;;
10839;SDS011;5473;42.706;23.328;2022-11-20T10:01:00;0.30;;;0.30;;
10839;SDS011;5473;42.706;23.328;2022-11-20T10:03:36;0.20;;;0.20;;
10839;SDS011;5473;42.706;23.328;2022-11-20T10:06:09;0.20;;;0.20;;
10839;SDS011;5473;42.706;23.328;2022-11-20T10:08:40;0.20;;;0.20;;
10839;SDS011;5473;42.706;23.328;2022-11-20T10:11:12;0.20;;;0.20;;
10839;SDS011;5473;42.706;23.328;2022-11-20T10:13:45;0.23;;;0.23;;
10839;SDS011;5473;42.706;23.328;2022-11-20T10:16:26;0.20;;;0.20;;
10839;SDS011;5473;42.706;23.328;2022-11-20T10:19:06;0.20;;;0.20;;
10839;SDS011;5473;42.706;23.328;2022-11-20T10:21:49;0.20;;;0.20;;
10839;SDS011;5473;42.706;23.328;2022-11-20T10:24:30;0.20;;;0.20;;
10839;SDS011;5473;42.706;23.328;2022-11-20T10:27:12;0.20;;;0.20;;
10839;SDS011;5473;42.706;23.328;2022-11-20T10:29:58;0.20;;;0.20;;
10839;SDS011;5473;42.706;23.328;2022-11-20T10:32:31;0.20;;;0.20;;
10839;SDS011;5473;42.706;23.328;2022-11-20T10:35:04;0.20;;;0.20;;
10839;SDS011;5473;42.706;23.328;2022-11-20T10:37:40;0.20;;;0.20;;
10839;SDS011;5473;42.706;23.328;2022-11-20T10:40:17;0.20;;;0.20;;
10839;SDS011;5473;42.706;23.328;2022-11-20T10:42:49;0.20;;;0.20;;
10839;SDS011;5473;42.706;23.328;2022-11-20T10:45:26;0.20;;;0.20;;
10839;SDS011;5473;42.706;23.328;2022-11-20T10:48:10;0.20;;;0.20;;
10839;SDS011;5473;42.706;23.328;2022-11-20T10:50:44;0.20;;;0.20;;
10839;SDS011;5473;42.706;23.328;2022-11-20T10:53:23;0.20;;;0.20;;
10839;SDS011;5473;42.706;23.328;2022-11-20T10:56:05;0.20;;;0.20;;
10839;SDS011;5473;42.706;23.328;2022-11-20T10:58:40;0.20;;;0.20;;
10839;SDS011;5473;42.706;23.328;2022-11-20T11:01:16;0.20;;;0.20;;
10839;SDS011;5473;42.706;23.328;2022-11-20T11:03:45;0.20;;;0.20;;
10839;SDS011;5473;42.706;23.328;2022-11-20T11:06:14;0.20;;;0.20;;
10839;SDS011;5473;42.706;23.328;2022-11-20T11:08:48;0.20;;;0.20;;
10839;SDS011;5473;42.706;23.328;2022-11-20T11:11:20;0.20;;;0.20;;
10839;SDS011;5473;42.706;23.328;2022-11-20T11:13:48;0.27;;;0.27;;
10839;SDS011;5473;42.706;23.328;2022-11-20T11:16:17;0.30;;;0.30;;
10839;SDS011;5473;42.706;23.328;2022-11-20T11:18:48;0.30;;;0.30;;
10839;SDS011;5473;42.706;23.328;2022-11-20T11:21:20;0.30;;;0.30;;
10839;SDS011;5473;42.706;23.328;2022-11-20T11:23:57;0.30;;;0.30;;
10839;SDS011;5473;42.706;23.328;2022-11-20T11:26:25;0.30;;;0.30;;
10839;SDS011;5473;42.706;23.328;2022-11-20T11:28:53;0.30;;;0.30;;
10839;SDS011;5473;42.706;23.328;2022-11-20T11:31:24;0.27;;;0.27;;
10839;SDS011;5473;42.706;23.328;2022-11-20T11:34:02;0.30;;;0.30;;
10839;SDS011;5473;42.706;23.328;2022-11-20T11:36:30;0.23;;;0.23;;
10839;SDS011;5473;42.706;23.328;2022-11-20T11:38:59;0.30;;;0.30;;
10839;SDS011;5473;42.706;23.328;2022-11-20T11:41:28;0.30;;;0.30;;
10839;SDS011;5473;42.706;23.328;2022-11-20T11:44:00;0.30;;;0.30;;
10839;SDS011;5473;42.706;23.328;2022-11-20T11:46:58;0.30;;;0.30;;
10839;SDS011;5473;42.706;23.328;2022-11-20T11:49:26;0.30;;;0.30;;
10839;SDS011;5473;42.706;23.328;2022-11-20T11:51:58;0.30;;;0.30;;
10839;SDS011;5473;42.706;23.328;2022-11-20T11:54:30;0.30;;;0.30;;
10839;SDS011;5473;42.706;23.328;2022-11-20T11:57:05;0.30;;;0.30;;
10839;SDS011;5473;42.706;23.328;2022-11-20T11:59:41;0.30;;;0.30;;
10839;SDS011;5473;42.706;23.328;2022-11-20T12:02:22;0.30;;;0.30;;
10839;SDS011;5473;42.706;23.328;2022-11-20T12:04:58;0.30;;;0.30;;
10839;SDS011;5473;42.706;23.328;2022-11-20T12:07:33;0.37;;;0.37;;
10839;SDS011;5473;42.706;23.328;2022-11-20T12:10:07;0.30;;;0.30;;
10839;SDS011;5473;42.706;23.328;2022-11-20T12:12:42;0.30;;;0.30;;
10839;SDS011;5473;42.706;23.328;2022-11-20T12:15:13;0.37;;;0.37;;
10839;SDS011;5473;42.706;23.328;2022-11-20T12:17:48;0.30;;;0.30;;
10839;SDS011;5473;42.706;23.328;2022-11-20T12:20:17;0.20;;;0.20;;
10839;SDS011;5473;42.706;23.328;2022-11-20T12:22:47;0.30;;;0.30;;
10839;SDS011;5473;42.706;23.328;2022-11-20T12:25:22;0.30;;;0.30;;
10839;SDS011;5473;42.706;23.328;2022-11-20T12:27:55;0.30;;;0.30;;
10839;SDS011;5473;42.706;23.328;2022-11-20T12:30:37;0.30;;;0.30;;
10839;SDS011;5473;42.706;23.328;2022-11-20T12:36:16;0.30;;;0.30;;
10839;SDS011;5473;42.706;23.328;2022-11-20T12:38:58;0.30;;;0.30;;
10839;SDS011;5473;42.706;23.328;2022-11-20T12:41:43;0.30;;;0.30;;
10839;SDS011;5473;42.706;23.328;2022-11-20T12:44:45;0.30;;;0.30;;
10839;SDS011;5473;42.706;23.328;2022-11-20T12:47:38;0.23;;;0.23;;
10839;SDS011;5473;42.706;23.328;2022-11-20T12:50:16;0.30;;;0.30;;
10839;SDS011;5473;42.706;23.328;2022-11-20T12:52:56;0.30;;;0.30;;
10839;SDS011;5473;42.706;23.328;2022-11-20T12:55:33;0.30;;;0.30;;
10839;SDS011;5473;42.706;23.328;2022-11-20T12:58:10;0.30;;;0.30;;
10839;SDS011;5473;42.706;23.328;2022-11-20T13:00:43;0.30;;;0.30;;
10839;SDS011;5473;42.706;23.328;2022-11-20T13:03:27;0.30;;;0.30;;
10839;SDS011;5473;42.706;23.328;2022-11-20T13:06:05;0.37;;;0.37;;
10839;SDS011;5473;42.706;23.328;2022-11-20T13:08:40;0.30;;;0.30;;
10839;SDS011;5473;42.706;23.328;2022-11-20T13:11:12;0.30;;;0.30;;
10839;SDS011;5473;42.706;23.328;2022-11-20T13:13:47;0.30;;;0.30;;
10839;SDS011;5473;42.706;23.328;2022-11-20T13:16:31;0.30;;;0.30;;
10839;SDS011;5473;42.706;23.328;2022-11-20T13:19:03;0.30;;;0.30;;
10839;SDS011;5473;42.706;23.328;2022-11-20T13:21:37;0.40;;;0.40;;
10839;SDS011;5473;42.706;23.328;2022-11-20T13:24:07;0.40;;;0.40;;
10839;SDS011;5473;42.706;23.328;2022-11-20T13:26:48;0.30;;;0.30;;
10839;SDS011;5473;42.706;23.328;2022-11-20T13:29:25;0.30;;;0.30;;
10839;SDS011;5473;42.706;23.328;2022-11-20T13:32:00;0.30;;;0.30;;
10839;SDS011;5473;42.706;23.328;2022-11-20T13:34:30;0.30;;;0.30;;
10839;SDS011;5473;42.706;23.328;2022-11-20T13:36:58;0.30;;;0.30;;
10839;SDS011;5473;42.706;23.328;2022-11-20T13:39:30;0.20;;;0.20;;
10839;SDS011;5473;42.706;23.328;2022-11-20T13:41:59;0.30;;;0.30;;
10839;SDS011;5473;42.706;23.328;2022-11-20T13:44:29;0.30;;;0.30;;
10839;SDS011;5473;42.706;23.328;2022-11-20T13:47:00;0.30;;;0.30;;
10839;SDS011;5473;42.706;23.328;2022-11-20T13:49:29;0.30;;;0.30;;
10839;SDS011;5473;42.706;23.328;2022-11-20T13:52:04;0.30;;;0.30;;
10839;SDS011;5473;42.706;23.328;2022-11-20T13:55:05;0.30;;;0.30;;
10839;SDS011;5473;42.706;23.328;2022-11-20T14:00:33;0.40;;;0.40;;
10839;SDS011;5473;42.706;23.328;2022-11-20T14:03:14;0.30;;;0.30;;
10839;SDS011;5473;42.706;23.328;2022-11-20T14:05:48;0.30;;;0.30;;
10839;SDS011;5473;42.706;23.328;2022-11-20T14:08:21;0.30;;;0.30;;
10839;SDS011;5473;42.706;23.328;2022-11-20T14:11:03;0.30;;;0.30;;
10839;SDS011;5473;42.706;23.328;2022-11-20T14:13:31;0.20;;;0.20;;
10839;SDS011;5473;42.706;23.328;2022-11-20T14:15:58;0.30;;;0.30;;
10839;SDS011;5473;42.706;23.328;2022-11-20T14:18:25;0.30;;;0.30;;
10839;SDS011;5473;42.706;23.328;2022-11-20T14:20:53;0.30;;;0.30;;
10839;SDS011;5473;42.706;23.328;2022-11-20T14:23:23;0.30;;;0.30;;
10839;SDS011;5473;42.706;23.328;2022-11-20T14:25:51;0.30;;;0.30;;
10839;SDS011;5473;42.706;23.328;2022-11-20T14:28:22;0.30;;;0.30;;
10839;SDS011;5473;42.706;23.328;2022-11-20T14:30:52;0.37;;;0.37;;
10839;SDS011;5473;42.706;23.328;2022-11-20T14:33:20;0.30;;;0.30;;
10839;SDS011;5473;42.706;23.328;2022-11-20T14:35:50;0.30;;;0.30;;
10839;SDS011;5473;42.706;23.328;2022-11-20T14:38:20;0.30;;;0.30;;
10839;SDS011;5473;42.706;23.328;2022-11-20T14:40:50;0.30;;;0.30;;
10839;SDS011;5473;42.706;23.328;2022-11-20T14:43:18;0.33;;;0.33;;
10839;SDS011;5473;42.706;23.328;2022-11-20T14:45:50;0.30;;;0.30;;
10839;SDS011;5473;42.706;23.328;2022-11-20T14:48:23;0.33;;;0.33;;
10839;SDS011;5473;42.706;23.328;2022-11-20T14:50:56;0.30;;;0.30;;
10839;SDS011;5473;42.706;23.328;2022-11-20T14:53:23;0.30;;;0.30;;
10839;SDS011;5473;42.706;23.328;2022-11-20T14:55:54;0.30;;;0.30;;
10839;SDS011;5473;42.706;23.328;2022-11-20T14:58:25;0.30;;;0.30;;
10839;SDS011;5473;42.706;23.328;2022-11-20T15:00:54;0.30;;;0.30;;
10839;SDS011;5473;42.706;23.328;2022-11-20T15:03:22;0.23;;;0.23;;
10839;SDS011;5473;42.706;23.328;2022-11-20T15:05:49;0.20;;;0.20;;
10839;SDS011;5473;42.706;23.328;2022-11-20T15:08:17;0.30;;;0.30;;
10839;SDS011;5473;42.706;23.328;2022-11-20T15:10:45;0.30;;;0.30;;